Time;durP1;ratioP1;P1;durP2;ratioP2;P2;SDS_P1;SDS_P2;PMS_P1;PMS_P2;Temp;Humidity;BMP_temperature;BMP_pressure;BME280_temperature;BME280_humidity;BME280_pressure;Samples;Min_cycle;Max_cycle;Signal;HPM_P1;HPM_P2
2023/12/28 00:00:19;;;;;;;0.20;0.20;;;10.00;99.90;;;;;;5096495;28;20060;-73
2023/12/28 00:02:44;;;;;;;0.57;0.57;;;9.90;99.70;;;;;;5063447;28;20064;-73
2023/12/28 00:05:10;;;;;;;0.55;0.55;;;9.60;96.90;;;;;;5070360;28;20120;-73
2023/12/28 00:07:36;;;;;;;0.50;0.50;;;9.80;99.90;;;;;;5103663;28;20059;-73
2023/12/28 00:10:03;;;;;;;0.35;0.35;;;9.90;99.90;;;;;;5070652;28;20055;-73
2023/12/28 00:12:28;;;;;;;0.40;0.40;;;9.80;99.90;;;;;;5071249;28;20504;-73
2023/12/28 00:14:54;;;;;;;0.88;0.65;;;9.50;99.90;;;;;;5053620;28;20043;-73
2023/12/28 00:17:20;;;;;;;0.80;0.80;;;9.90;99.90;;;;;;5083998;28;20053;-74
2023/12/28 00:19:46;;;;;;;1.20;0.75;;;9.70;99.90;;;;;;5052349;28;20044;-73
2023/12/28 00:22:12;;;;;;;0.40;0.40;;;9.90;99.90;;;;;;5051483;28;20083;-74
2023/12/28 00:24:37;;;;;;;0.75;0.40;;;10.10;99.90;;;;;;5052407;28;20084;-74
2023/12/28 00:27:03;;;;;;;4.38;0.55;;;10.30;99.90;;;;;;5050212;28;20048;-73
2023/12/28 00:29:29;;;;;;;0.20;0.20;;;10.10;99.90;;;;;;5050957;28;20048;-74
2023/12/28 00:31:55;;;;;;;0.38;0.38;;;9.90;99.90;;;;;;5050528;28;20041;-74
2023/12/28 00:34:21;;;;;;;0.47;0.38;;;9.90;99.90;;;;;;5050111;28;20131;-74
2023/12/28 00:36:47;;;;;;;0.20;0.20;;;9.90;99.90;;;;;;5051080;28;20067;-73
2023/12/28 00:39:12;;;;;;;0.40;0.40;;;10.10;99.90;;;;;;5050609;28;20481;-74
2023/12/28 00:41:38;;;;;;;0.10;0.10;;;9.80;99.90;;;;;;5049863;28;20049;-73
2023/12/28 00:44:06;;;;;;;0.45;0.45;;;10.20;99.90;;;;;;5051682;28;20060;-73
2023/12/28 00:46:32;;;;;;;0.65;0.65;;;10.50;99.90;;;;;;5050453;28;20057;-73
2023/12/28 00:48:58;;;;;;;1.20;0.65;;;10.20;99.90;;;;;;5049736;28;20045;-72
2023/12/28 00:51:23;;;;;;;0.30;0.30;;;10.40;99.90;;;;;;5051263;28;20056;-73
2023/12/28 00:53:49;;;;;;;1.75;0.90;;;9.80;99.90;;;;;;5050080;28;20059;-73
2023/12/28 00:56:15;;;;;;;0.35;0.35;;;10.00;99.90;;;;;;5051022;28;20087;-73
2023/12/28 00:58:41;;;;;;;9.45;1.27;;;10.30;99.90;;;;;;5083900;28;20477;-73
2023/12/28 01:01:06;;;;;;;0.30;0.30;;;10.20;99.90;;;;;;5050922;28;20071;-73
2023/12/28 01:03:32;;;;;;;2.63;1.00;;;10.10;99.90;;;;;;5051120;28;20532;-73
2023/12/28 01:05:58;;;;;;;0.40;0.40;;;9.90;99.90;;;;;;5050892;28;20061;-74
2023/12/28 01:08:23;;;;;;;0.52;0.52;;;10.30;99.90;;;;;;5049890;28;20055;-73
2023/12/28 01:10:49;;;;;;;3.90;0.65;;;10.50;99.90;;;;;;5094560;28;20063;-73
2023/12/28 01:13:15;;;;;;;0.85;0.85;;;10.20;99.90;;;;;;5052811;28;20041;-73
2023/12/28 01:15:41;;;;;;;0.52;0.52;;;10.00;99.90;;;;;;5050985;28;20037;-73
2023/12/28 01:18:06;;;;;;;0.75;0.38;;;10.30;99.90;;;;;;5050919;28;20047;-73
2023/12/28 01:20:32;;;;;;;0.40;0.40;;;10.30;99.90;;;;;;5049597;28;20045;-72
2023/12/28 01:22:58;;;;;;;0.57;0.57;;;10.00;99.90;;;;;;5049658;28;20045;-73
2023/12/28 01:25:23;;;;;;;4.75;1.20;;;9.90;99.90;;;;;;5051862;28;20053;-72
2023/12/28 01:27:49;;;;;;;4.68;0.60;;;10.20;99.90;;;;;;5051699;28;20044;-75
2023/12/28 01:30:15;;;;;;;0.55;0.55;;;9.90;99.90;;;;;;5037368;28;20045;-73
2023/12/28 01:32:41;;;;;;;0.40;0.40;;;10.00;99.90;;;;;;5055162;28;20045;-74
2023/12/28 01:35:07;;;;;;;0.40;0.40;;;9.90;99.90;;;;;;5055824;28;20045;-74
2023/12/28 01:37:33;;;;;;;0.55;0.28;;;10.00;99.90;;;;;;5056219;28;20041;-72
2023/12/28 01:40:00;;;;;;;0.75;0.75;;;10.10;99.90;;;;;;5055438;28;20087;-72
2023/12/28 01:42:26;;;;;;;3.60;1.20;;;10.10;99.90;;;;;;5056089;28;20053;-73
2023/12/28 01:44:52;;;;;;;1.05;1.05;;;10.30;99.90;;;;;;5055100;28;20052;-73
2023/12/28 01:47:18;;;;;;;1.38;1.33;;;10.20;99.90;;;;;;5055503;28;20041;-72
2023/12/28 01:49:45;;;;;;;2.00;1.20;;;10.40;99.90;;;;;;5054785;28;20048;-74
2023/12/28 01:52:10;;;;;;;4.30;3.40;;;9.90;99.90;;;;;;5054851;28;20045;-73
2023/12/28 01:54:37;;;;;;;0.30;0.30;;;10.20;99.90;;;;;;5053522;28;20508;-72
2023/12/28 01:57:04;;;;;;;0.17;0.17;;;9.90;99.90;;;;;;5053391;28;20044;-73
2023/12/28 01:59:31;;;;;;;0.98;0.50;;;10.20;99.90;;;;;;5055028;28;20049;-73
2023/12/28 02:01:57;;;;;;;0.22;0.22;;;10.10;99.90;;;;;;5057977;28;20053;-74
2023/12/28 02:04:28;;;;;;;0.20;0.20;;;10.40;99.90;;;;;;5074382;28;20546;-73
2023/12/28 02:06:58;;;;;;;0.43;0.43;;;9.80;99.90;;;;;;5105539;28;20114;-73
2023/12/28 02:09:25;;;;;;;0.65;0.47;;;9.80;99.90;;;;;;5074115;28;20060;-74
2023/12/28 02:11:51;;;;;;;0.20;0.20;;;9.90;99.90;;;;;;5072076;28;20455;-74
2023/12/28 02:14:17;;;;;;;0.32;0.32;;;10.00;99.90;;;;;;5106857;28;20095;-72
2023/12/28 02:17:05;;;;;;;0.60;0.60;;;8.70;99.90;;;;;;5054122;28;20107;-73
2023/12/28 02:19:50;;;;;;;8.07;0.50;;;9.70;99.90;;;;;;5054323;28;20092;-73
2023/12/28 02:22:16;;;;;;;0.70;0.70;;;9.60;99.90;;;;;;5054571;28;20493;-73
2023/12/28 02:25:06;;;;;;;0.43;0.43;;;9.90;99.90;;;;;;5054414;28;20045;-73
2023/12/28 02:27:39;;;;;;;0.70;0.43;;;10.10;99.90;;;;;;5053426;28;20096;-73
2023/12/28 02:30:07;;;;;;;6.93;0.63;;;9.90;99.90;;;;;;5054127;28;20056;-73
2023/12/28 02:33:04;;;;;;;2.50;0.93;;;9.70;99.90;;;;;;5054348;28;20064;-73
2023/12/28 02:35:39;;;;;;;1.90;1.35;;;10.20;99.90;;;;;;5036529;28;20136;-73
2023/12/28 02:38:13;;;;;;;0.52;0.52;;;9.70;99.90;;;;;;5053814;28;20503;-73
2023/12/28 02:40:41;;;;;;;0.20;0.20;;;9.90;99.90;;;;;;5053637;28;20474;-73
2023/12/28 02:43:08;;;;;;;0.30;0.30;;;10.20;99.90;;;;;;5086570;28;20366;-73
2023/12/28 02:45:34;;;;;;;0.25;0.25;;;10.10;99.90;;;;;;5054180;28;20362;-73
2023/12/28 02:48:01;;;;;;;0.30;0.30;;;10.10;99.90;;;;;;5052850;28;20143;-73
2023/12/28 02:50:26;;;;;;;2.30;0.47;;;10.50;99.90;;;;;;5054003;28;20045;-74
2023/12/28 02:52:52;;;;;;;2.45;0.32;;;10.00;99.90;;;;;;5053898;28;20382;-73
2023/12/28 02:55:18;;;;;;;2.35;1.15;;;10.20;99.90;;;;;;5053958;28;20060;-72
2023/12/28 02:57:44;;;;;;;0.20;0.20;;;10.20;99.90;;;;;;5054042;28;20041;-73
2023/12/28 03:00:11;;;;;;;0.47;0.47;;;10.20;99.90;;;;;;5053209;28;20489;-73
2023/12/28 03:02:39;;;;;;;;;;;10.10;99.90;;;;;;5063842;28;20119;-72
2023/12/28 03:05:06;;;;;;;0.20;0.20;;;10.20;99.90;;;;;;5072296;28;19932;-73
2023/12/28 03:07:32;;;;;;;7.63;2.45;;;10.30;97.90;;;;;;5105516;28;20498;-73
2023/12/28 03:09:58;;;;;;;3.22;1.08;;;10.20;99.90;;;;;;5072078;28;20568;-74
2023/12/28 03:12:24;;;;;;;0.50;0.50;;;10.50;93.50;;;;;;5088681;28;20127;-73
2023/12/28 03:14:50;;;;;;;1.10;1.10;;;10.70;94.60;;;;;;5071314;28;20048;-73
2023/12/28 03:17:16;;;;;;;0.43;0.43;;;10.40;99.90;;;;;;5071245;28;20055;-73
2023/12/28 03:19:41;;;;;;;3.10;0.63;;;10.30;99.10;;;;;;5104824;28;20040;-73
2023/12/28 03:22:07;;;;;;;0.20;0.20;;;10.40;98.00;;;;;;5072594;28;20127;-73
2023/12/28 03:24:33;;;;;;;0.30;0.30;;;10.20;95.00;;;;;;5054322;28;20133;-73
2023/12/28 03:26:59;;;;;;;0.13;0.13;;;9.90;95.50;;;;;;5062474;28;20056;-73
2023/12/28 03:29:25;;;;;;;1.85;0.50;;;10.30;99.90;;;;;;5072214;28;20055;-74
2023/12/28 03:31:50;;;;;;;0.20;0.20;;;10.40;91.80;;;;;;5044629;28;20052;-74
2023/12/28 03:34:17;;;;;;;1.65;1.20;;;10.40;96.30;;;;;;5052139;28;20080;-73
2023/12/28 03:36:43;;;;;;;0.20;0.20;;;10.30;91.50;;;;;;5034959;28;20071;-74
2023/12/28 03:39:08;;;;;;;0.35;0.35;;;10.20;93.30;;;;;;5052624;28;20047;-73
2023/12/28 03:41:34;;;;;;;3.45;0.70;;;10.10;89.30;;;;;;5035009;28;20037;-71
2023/12/28 03:44:00;;;;;;;1.00;0.75;;;10.10;85.30;;;;;;5052595;28;20048;-73
2023/12/28 03:46:26;;;;;;;23.42;0.85;;;10.20;91.20;;;;;;5085078;28;20056;-73
2023/12/28 03:48:53;;;;;;;0.30;0.30;;;10.30;78.00;;;;;;5052155;28;20053;-72
2023/12/28 03:51:19;;;;;;;0.38;0.35;;;10.40;92.20;;;;;;5052140;28;20390;-73
2023/12/28 03:53:44;;;;;;;0.20;0.20;;;10.30;90.10;;;;;;5053386;28;20055;-73
2023/12/28 03:56:24;;;;;;;0.32;0.32;;;;;;;;;;5051363;28;20044;-74
2023/12/28 03:58:50;;;;;;;0.90;0.30;;;10.60;81.00;;;;;;5051376;28;20049;-73
2023/12/28 04:01:20;;;;;;;3.97;0.93;;;10.50;74.90;;;;;;5084287;28;20087;-72
2023/12/28 04:03:46;;;;;;;0.40;0.40;;;10.30;72.20;;;;;;5052041;28;20053;-73
2023/12/28 04:06:12;;;;;;;0.22;0.22;;;10.40;71.10;;;;;;5051627;28;20056;-72
2023/12/28 04:08:39;;;;;;;;;;;10.30;63.90;;;;;;5038784;28;20139;-72
2023/12/28 04:11:04;;;;;;;1.23;0.40;;;10.40;65.40;;;;;;5051108;28;19927;-72
2023/12/28 04:13:30;;;;;;;0.30;0.30;;;10.60;61.50;;;;;;5039469;28;20041;-72
2023/12/28 04:15:56;;;;;;;0.40;0.40;;;10.70;66.10;;;;;;5052146;28;20052;-73
2023/12/28 04:18:22;;;;;;;1.23;1.23;;;10.50;60.60;;;;;;5052488;28;20055;-73
2023/12/28 04:20:47;;;;;;;1.17;1.10;;;10.80;65.00;;;;;;5052832;28;20571;-73
2023/12/28 04:23:14;;;;;;;0.65;0.40;;;10.50;49.40;;;;;;5052803;28;20073;-74
2023/12/28 04:25:40;;;;;;;1.10;0.68;;;10.50;53.10;;;;;;5035297;28;20111;-75
2023/12/28 04:28:06;;;;;;;0.45;0.45;;;10.50;45.40;;;;;;5052927;28;20080;-73
2023/12/28 04:30:32;;;;;;;0.98;0.98;;;10.70;51.10;;;;;;5053045;28;20536;-73
2023/12/28 04:32:58;;;;;;;1.88;0.77;;;10.60;49.00;;;;;;5053056;28;20048;-74
2023/12/28 04:35:23;;;;;;;1.45;0.60;;;10.70;44.40;;;;;;5052999;28;20397;-73
2023/12/28 04:37:49;;;;;;;0.45;0.45;;;10.40;49.20;;;;;;5052596;28;20127;-73
2023/12/28 04:40:15;;;;;;;0.55;0.50;;;10.70;46.40;;;;;;5051848;28;20401;-73
2023/12/28 04:42:41;;;;;;;0.45;0.40;;;11.00;33.60;;;;;;5052285;28;20057;-73
2023/12/28 04:45:07;;;;;;;2.40;2.17;;;10.50;36.60;;;;;;5051130;28;20048;-74
2023/12/28 04:47:32;;;;;;;;;;;11.10;28.90;;;;;;5052610;28;20076;-73
2023/12/28 04:49:58;;;;;;;0.10;0.10;;;10.60;24.60;;;;;;5052431;28;20047;-73
2023/12/28 04:52:24;;;;;;;0.30;0.30;;;10.70;18.40;;;;;;5052309;28;20048;-73
2023/12/28 04:54:50;;;;;;;1.20;0.80;;;10.80;24.90;;;;;;5051095;28;20040;-75
2023/12/28 04:57:16;;;;;;;1.05;0.80;;;10.50;19.80;;;;;;5051840;28;20122;-73
2023/12/28 04:59:42;;;;;;;0.70;0.70;;;10.80;25.60;;;;;;5051947;28;20049;-73
2023/12/28 05:02:07;;;;;;;1.10;1.02;;;10.70;27.60;;;;;;5050105;28;20045;-73
2023/12/28 05:04:37;;;;;;;0.20;0.20;;;10.70;21.60;;;;;;5053488;28;20045;-72
2023/12/28 05:07:03;;;;;;;0.90;0.90;;;10.80;32.90;;;;;;5051584;28;20056;-73
2023/12/28 05:09:28;;;;;;;2.35;0.70;;;10.70;29.40;;;;;;5055404;28;20060;-72
2023/12/28 05:11:54;;;;;;;1.67;0.73;;;10.30;32.90;;;;;;5041558;28;20055;-73
2023/12/28 05:14:19;;;;;;;0.68;0.68;;;10.90;37.20;;;;;;5055004;28;20044;-72
2023/12/28 05:16:45;;;;;;;0.30;0.30;;;10.60;35.90;;;;;;5055439;28;20087;-73
2023/12/28 05:19:11;;;;;;;0.22;0.22;;;10.70;30.00;;;;;;5055490;28;20049;-72
2023/12/28 05:21:36;;;;;;;0.80;0.38;;;10.40;32.60;;;;;;5055345;28;20049;-73
2023/12/28 05:24:02;;;;;;;0.22;0.22;;;10.70;34.60;;;;;;5055744;28;20049;-73
2023/12/28 05:26:28;;;;;;;12.73;2.28;;;10.90;30.60;;;;;;5055912;28;20048;-73
2023/12/28 05:28:54;;;;;;;1.90;1.40;;;10.50;23.00;;;;;;5054336;28;20048;-72
2023/12/28 05:31:19;;;;;;;3.78;0.98;;;10.50;27.30;;;;;;5054699;28;20037;-74
2023/12/28 05:33:45;;;;;;;0.95;0.47;;;10.60;28.90;;;;;;5066409;28;20040;-72
2023/12/28 05:36:10;;;;;;;0.10;0.10;;;10.60;22.10;;;;;;5072646;28;20052;-72
2023/12/28 05:38:36;;;;;;;0.32;0.32;;;10.30;23.70;;;;;;5075075;28;20051;-72
2023/12/28 05:41:02;;;;;;;2.65;0.60;;;10.50;29.80;;;;;;5059616;28;20044;-72
2023/12/28 05:43:27;;;;;;;0.30;0.30;;;10.80;21.40;;;;;;5073157;28;20131;-72
2023/12/28 05:45:53;;;;;;;0.50;0.50;;;10.90;23.30;;;;;;5106191;28;20408;-72
2023/12/28 05:48:19;;;;;;;0.17;0.17;;;10.30;22.80;;;;;;5074144;28;20048;-72
2023/12/28 05:50:44;;;;;;;1.45;1.30;;;10.30;26.70;;;;;;5073386;28;20177;-73
2023/12/28 05:53:14;;;;;;;0.22;0.22;;;10.50;23.80;;;;;;5072568;28;20044;-72
2023/12/28 05:55:43;;;;;;;2.28;1.20;;;10.50;28.30;;;;;;5071862;28;20057;-72
2023/12/28 05:58:09;;;;;;;0.10;0.10;;;10.50;22.10;;;;;;5104971;28;20047;-72
2023/12/28 06:00:36;;;;;;;;;;;10.40;29.90;;;;;;5041773;28;20057;-72
2023/12/28 06:03:05;;;;;;;0.40;0.22;;;10.30;28.60;;;;;;5053665;28;19942;-72
2023/12/28 06:05:31;;;;;;;1.23;1.13;;;10.40;28.40;;;;;;5066907;28;20123;-71
2023/12/28 06:07:57;;;;;;;0.20;0.20;;;10.50;34.00;;;;;;5067071;28;20044;-72
2023/12/28 06:10:24;;;;;;;5.72;0.75;;;10.60;28.50;;;;;;5074470;28;20125;-72
2023/12/28 06:12:50;;;;;;;8.00;1.58;;;10.60;26.40;;;;;;5073763;28;20143;-72
2023/12/28 06:15:15;;;;;;;1.60;1.50;;;10.60;38.00;;;;;;5073654;28;20445;-71
2023/12/28 06:17:41;;;;;;;0.30;0.30;;;10.50;27.90;;;;;;5073225;28;20480;-72
2023/12/28 06:20:08;;;;;;;1.40;0.75;;;10.60;26.60;;;;;;5073945;28;20120;-72
2023/12/28 06:22:36;;;;;;;0.88;0.88;;;10.60;24.70;;;;;;5071390;28;20114;-73
2023/12/28 06:25:03;;;;;;;7.63;1.23;;;10.90;32.70;;;;;;5072498;28;20423;-72
2023/12/28 06:27:29;;;;;;;0.30;0.30;;;10.90;31.70;;;;;;5055077;28;20060;-73
2023/12/28 06:29:54;;;;;;;17.88;1.00;;;10.70;29.30;;;;;;5073573;28;20049;-73
2023/12/28 06:32:20;;;;;;;1.35;1.17;;;10.40;28.30;;;;;;5072852;28;20044;-72
2023/12/28 06:34:47;;;;;;;0.20;0.20;;;10.70;33.50;;;;;;5106587;28;20048;-72
2023/12/28 06:37:12;;;;;;;0.10;0.10;;;10.50;22.90;;;;;;5069777;28;20048;-73
2023/12/28 06:39:39;;;;;;;0.77;0.25;;;10.50;30.00;;;;;;5062364;28;20139;-73
2023/12/28 06:42:05;;;;;;;0.20;0.20;;;11.00;27.90;;;;;;5070711;28;20048;-72
2023/12/28 06:44:31;;;;;;;0.55;0.30;;;10.50;29.90;;;;;;5105525;28;20123;-73
2023/12/28 06:46:56;;;;;;;0.28;0.28;;;10.70;21.90;;;;;;5070025;28;20171;-73
2023/12/28 06:49:22;;;;;;;0.57;0.57;;;10.70;24.70;;;;;;5072745;28;20070;-72
2023/12/28 06:51:48;;;;;;;0.40;0.40;;;10.50;24.20;;;;;;5069725;28;20049;-73
2023/12/28 06:54:14;;;;;;;0.28;0.28;;;10.70;17.00;;;;;;5072488;28;20048;-71
2023/12/28 06:56:40;;;;;;;1.20;1.02;;;10.80;21.30;;;;;;5086942;28;20080;-73
2023/12/28 06:59:06;;;;;;;0.20;0.20;;;10.60;21.40;;;;;;5072562;28;20145;-72
2023/12/28 07:01:32;;;;;;;4.05;1.13;;;10.80;19.90;;;;;;5039644;28;20084;-73
2023/12/28 07:03:59;;;;;;;0.20;0.20;;;10.90;13.20;;;;;;5053992;28;20136;-72
2023/12/28 07:06:25;;;;;;;0.13;0.13;;;10.90;18.20;;;;;;5053076;28;20041;-73
2023/12/28 07:08:51;;;;;;;0.40;0.35;;;10.90;13.50;;;;;;5053469;28;21793;-72
2023/12/28 07:11:17;;;;;;;0.50;0.50;;;10.80;16.00;;;;;;5053215;28;20059;-73
2023/12/28 07:13:42;;;;;;;0.20;0.20;;;10.60;9.50;;;;;;5053554;28;20049;-72
2023/12/28 07:16:08;;;;;;;1.55;1.42;;;10.80;14.70;;;;;;5053690;28;20060;-72
2023/12/28 07:18:34;;;;;;;0.60;0.60;;;11.00;6.70;;;;;;5047104;28;20045;-73
2023/12/28 07:21:00;;;;;;;1.55;1.48;;;10.70;10.60;;;;;;5066481;28;20049;-73
2023/12/28 07:23:27;;;;;;;9.18;1.10;;;11.10;1.00;;;;;;5060888;28;20055;-72
2023/12/28 07:25:52;;;;;;;0.28;0.28;;;10.80;1.00;;;;;;5068792;28;20072;-74
2023/12/28 07:28:18;;;;;;;0.80;0.80;;;11.20;1.00;;;;;;5018666;28;20452;-74
2023/12/28 07:30:44;;;;;;;0.52;0.52;;;11.30;1.00;;;;;;5033966;28;20568;-73
2023/12/28 07:33:10;;;;;;;1.55;1.35;;;11.30;1.00;;;;;;5051578;28;20056;-72
2023/12/28 07:35:35;;;;;;;3.83;1.27;;;11.00;1.00;;;;;;5051973;28;20080;-74
2023/12/28 07:38:02;;;;;;;9.20;2.15;;;10.90;1.00;;;;;;5053250;28;20451;-73
2023/12/28 07:40:27;;;;;;;5.95;1.40;;;10.90;1.00;;;;;;5052795;28;20049;-75
2023/12/28 07:42:53;;;;;;;0.40;0.40;;;10.70;1.00;;;;;;5052116;28;20492;-72
2023/12/28 07:45:23;;;;;;;0.20;0.20;;;11.00;1.00;;;;;;5084574;28;20057;-72
2023/12/28 07:47:51;;;;;;;2.10;1.00;;;11.10;1.00;;;;;;5052804;28;20060;-72
2023/12/28 07:50:17;;;;;;;15.25;2.85;;;11.20;1.00;;;;;;5052690;28;20083;-72
2023/12/28 07:52:45;;;;;;;0.60;0.60;;;10.90;1.00;;;;;;5053179;28;20076;-74
2023/12/28 07:55:10;;;;;;;5.30;0.90;;;11.20;1.00;;;;;;5084952;28;20045;-73
2023/12/28 07:57:36;;;;;;;8.30;0.63;;;10.90;1.00;;;;;;5052712;28;20443;-74
2023/12/28 08:00:03;;;;;;;5.72;0.52;;;11.50;1.00;;;;;;5052194;28;20072;-72
2023/12/28 08:02:29;;;;;;;1.50;0.63;;;11.20;1.00;;;;;;5050638;28;20465;-73
2023/12/28 08:04:55;;;;;;;1.83;0.98;;;11.50;1.00;;;;;;5052157;28;20071;-75
2023/12/28 08:07:20;;;;;;;6.10;1.75;;;11.30;1.00;;;;;;5051977;28;20045;-73
2023/12/28 08:09:46;;;;;;;0.75;0.75;;;11.40;1.00;;;;;;5051675;28;20060;-71
2023/12/28 08:12:12;;;;;;;2.83;2.63;;;11.00;1.00;;;;;;5051860;28;20088;-73
2023/12/28 08:14:37;;;;;;;0.10;0.10;;;11.40;1.00;;;;;;5050994;28;20079;-72
2023/12/28 08:17:03;;;;;;;3.00;1.65;;;11.40;1.00;;;;;;5084103;28;20126;-73
2023/12/28 08:19:29;;;;;;;0.60;0.60;;;11.40;1.00;;;;;;5065984;28;20182;-73
2023/12/28 08:21:55;;;;;;;2.00;0.50;;;11.60;1.00;;;;;;5087396;28;20045;-72
2023/12/28 08:24:21;;;;;;;1.20;0.95;;;11.40;1.00;;;;;;5070782;28;20048;-72
2023/12/28 08:26:47;;;;;;;0.68;0.63;;;11.10;1.00;;;;;;5046042;28;20081;-73
2023/12/28 08:29:12;;;;;;;5.18;1.83;;;11.50;1.00;;;;;;5059334;28;20110;-72
2023/12/28 08:31:38;;;;;;;0.30;0.30;;;11.80;1.00;;;;;;5057079;28;20110;-73
2023/12/28 08:34:04;;;;;;;0.98;0.70;;;11.50;1.00;;;;;;5059996;28;20459;-72
2023/12/28 08:36:30;;;;;;;3.60;2.00;;;11.50;1.00;;;;;;5060923;28;20473;-73
2023/12/28 08:38:55;;;;;;;3.10;1.10;;;11.60;1.00;;;;;;5058753;28;20047;-71
2023/12/28 08:41:23;;;;;;;5.15;0.70;;;11.60;1.00;;;;;;5057268;28;20049;-72
2023/12/28 08:43:50;;;;;;;2.10;1.10;;;11.60;1.00;;;;;;5058280;28;20412;-72
2023/12/28 08:46:16;;;;;;;11.82;1.80;;;11.60;1.00;;;;;;5051623;28;20049;-72
2023/12/28 08:48:42;;;;;;;0.75;0.75;;;11.80;1.00;;;;;;5052211;28;20082;-71
2023/12/28 08:51:09;;;;;;;;;;;11.60;1.00;;;;;;5054510;28;20079;-71
2023/12/28 08:53:35;;;;;;;0.52;0.52;;;11.60;1.00;;;;;;5059699;28;19928;-72
2023/12/28 08:56:00;;;;;;;0.73;0.73;;;11.60;1.00;;;;;;5054736;28;20122;-73
2023/12/28 08:58:26;;;;;;;3.72;1.92;;;11.80;1.00;;;;;;5041759;28;20551;-75
2023/12/28 09:00:52;;;;;;;0.52;0.32;;;11.80;1.00;;;;;;5052613;28;20128;-78
2023/12/28 09:03:17;;;;;;;1.13;1.13;;;11.70;1.00;;;;;;5050408;28;20052;-74
2023/12/28 09:05:43;;;;;;;4.20;1.00;;;11.60;1.00;;;;;;5044405;28;20467;-71
2023/12/28 09:08:09;;;;;;;5.93;0.95;;;11.60;1.00;;;;;;5056904;28;20449;-69
2023/12/28 09:10:34;;;;;;;1.42;1.33;;;11.70;1.00;;;;;;5086657;28;20049;-70
2023/12/28 09:13:00;;;;;;;19.73;2.97;;;11.40;1.00;;;;;;5057264;28;20076;-72
2023/12/28 09:15:26;;;;;;;5.07;0.82;;;11.70;1.00;;;;;;5055350;28;20045;-71
2023/12/28 09:17:51;;;;;;;0.47;0.47;;;11.40;1.00;;;;;;5057472;28;20037;-74
2023/12/28 09:20:18;;;;;;;2.28;0.90;;;11.60;1.00;;;;;;5054853;28;20040;-72
2023/12/28 09:22:45;;;;;;;0.93;0.35;;;11.70;1.00;;;;;;5052826;28;20041;-72
2023/12/28 09:25:11;;;;;;;0.38;0.38;;;11.60;1.00;;;;;;5055330;28;20051;-72
2023/12/28 09:27:37;;;;;;;1.83;1.73;;;11.60;1.00;;;;;;5056833;28;20540;-69
2023/12/28 09:30:03;;;;;;;6.05;0.65;;;11.50;1.00;;;;;;5055890;28;20037;-72
2023/12/28 09:32:29;;;;;;;1.55;1.45;;;11.60;1.00;;;;;;5058581;28;20454;-71
2023/12/28 09:34:55;;;;;;;3.88;1.00;;;11.30;1.00;;;;;;5056576;28;20049;-73
2023/12/28 09:37:20;;;;;;;0.30;0.30;;;11.80;1.00;;;;;;5058912;28;20048;-70
2023/12/28 09:39:46;;;;;;;4.13;2.70;;;11.60;1.00;;;;;;5056878;28;20088;-71
2023/12/28 09:42:24;;;;;;;12.27;1.08;;;11.80;1.00;;;;;;5058957;28;20057;-73
2023/12/28 09:44:51;;;;;;;9.65;1.50;;;11.40;1.00;;;;;;5081268;28;20092;-71
2023/12/28 09:47:17;;;;;;;1.17;1.08;;;12.00;1.00;;;;;;5061451;28;20068;-73
2023/12/28 09:49:44;;;;;;;0.45;0.45;;;11.60;1.00;;;;;;5056837;28;20531;-70
2023/12/28 09:52:09;;;;;;;25.40;1.95;;;11.60;1.00;;;;;;5065389;28;20052;-73
2023/12/28 09:54:35;;;;;;;3.72;0.75;;;11.80;1.00;;;;;;5059895;28;20041;-73
2023/12/28 09:57:01;;;;;;;7.43;1.65;;;11.70;1.00;;;;;;5064699;28;20109;-71
2023/12/28 09:59:28;;;;;;;0.63;0.43;;;11.60;1.00;;;;;;5059703;28;20094;-72
2023/12/28 10:01:55;;;;;;;4.78;4.13;;;11.70;1.00;;;;;;5088197;28;20088;-72
2023/12/28 10:04:21;;;;;;;1.65;0.70;;;11.80;1.00;;;;;;5054422;28;20060;-72
2023/12/28 10:06:47;;;;;;;1.05;0.95;;;11.50;1.00;;;;;;5054131;28;20106;-71
2023/12/28 10:09:13;;;;;;;3.15;0.70;;;11.70;1.00;;;;;;5053967;28;20504;-73
2023/12/28 10:11:39;;;;;;;8.73;2.63;;;11.80;1.00;;;;;;5058431;28;20059;-69
2023/12/28 10:14:06;;;;;;;3.30;2.08;;;11.50;1.00;;;;;;5073273;28;20055;-69
2023/12/28 10:16:32;;;;;;;12.77;1.52;;;11.60;1.00;;;;;;5072967;28;20537;-71
2023/12/28 10:18:58;;;;;;;4.75;2.85;;;11.70;1.00;;;;;;5073229;28;20123;-70
2023/12/28 10:21:24;;;;;;;3.47;1.25;;;12.10;1.00;;;;;;5073182;28;20125;-69
2023/12/28 10:23:50;;;;;;;2.17;0.75;;;12.10;1.00;;;;;;5073384;28;20127;-74
2023/12/28 10:26:19;;;;;;;0.85;0.85;;;11.90;1.00;;;;;;5073302;28;20119;-68
2023/12/28 10:28:44;;;;;;;8.30;2.05;;;12.10;1.00;;;;;;5073649;28;20130;-69
2023/12/28 10:31:10;;;;;;;2.20;2.10;;;11.80;1.00;;;;;;5072720;28;20133;-69
2023/12/28 10:33:36;;;;;;;0.60;0.60;;;11.90;1.00;;;;;;5073137;28;20044;-71
2023/12/28 10:36:07;;;;;;;14.07;2.63;;;12.00;1.00;;;;;;5069694;28;20183;-71
2023/12/28 10:38:37;;;;;;;6.07;1.70;;;11.90;1.00;;;;;;5073739;28;20051;-70
2023/12/28 10:41:07;;;;;;;1.60;1.13;;;11.80;1.00;;;;;;5041039;28;20061;-70
2023/12/28 10:43:40;;;;;;;7.03;1.08;;;11.80;1.00;;;;;;5058805;28;20052;-72
2023/12/28 10:46:07;;;;;;;1.77;0.95;;;11.80;1.00;;;;;;5070636;28;20058;-70
2023/12/28 10:48:38;;;;;;;1.00;0.88;;;11.90;1.00;;;;;;5061296;28;20175;-70
2023/12/28 10:51:06;;;;;;;0.77;0.77;;;11.70;1.00;;;;;;5062308;28;20052;-70
2023/12/28 10:53:43;;;;;;;22.45;1.67;;;12.00;1.00;;;;;;5064941;28;20253;-70
2023/12/28 10:56:31;;;;;;;0.45;0.45;;;11.90;1.00;;;;;;5070438;28;20185;-70
2023/12/28 10:59:23;;;;;;;0.10;0.10;;;11.60;1.00;;;;;;5049496;28;20048;-70
2023/12/28 11:01:52;;;;;;;0.25;0.25;;;11.80;1.00;;;;;;5055702;28;20123;-71
2023/12/28 11:04:44;;;;;;;26.00;2.60;;;11.30;1.00;;;;;;5064796;28;20048;-69
2023/12/28 11:07:13;;;;;;;1.00;1.00;;;11.60;1.00;;;;;;5046438;28;20382;-71
2023/12/28 11:09:42;;;;;;;0.30;0.30;;;11.50;1.00;;;;;;5060763;28;20053;-70
2023/12/28 11:12:10;;;;;;;3.40;1.45;;;11.70;1.00;;;;;;5057073;28;20060;-70
2023/12/28 11:14:39;;;;;;;0.65;0.65;;;11.50;1.00;;;;;;5061248;28;20045;-70
2023/12/28 11:17:05;;;;;;;0.38;0.38;;;11.50;1.00;;;;;;5060806;28;20075;-70
2023/12/28 11:19:32;;;;;;;8.60;1.88;;;11.60;1.00;;;;;;5063667;28;20151;-70
2023/12/28 11:21:59;;;;;;;8.48;1.67;;;11.90;1.00;;;;;;5068126;28;20130;-70
2023/12/28 11:24:28;;;;;;;2.78;0.88;;;11.40;1.00;;;;;;5097135;28;20202;-70
2023/12/28 11:26:54;;;;;;;0.40;0.40;;;11.30;1.40;;;;;;5067206;28;20044;-70
2023/12/28 11:29:20;;;;;;;0.38;0.32;;;11.90;1.00;;;;;;5051957;28;20183;-70
2023/12/28 11:32:09;;;;;;;8.93;1.17;;;11.50;1.30;;;;;;5053388;28;20076;-70
2023/12/28 11:34:35;;;;;;;0.50;0.50;;;11.40;1.00;;;;;;5070986;28;20044;-72
2023/12/28 11:37:12;;;;;;;2.22;0.43;;;11.40;1.00;;;;;;5038732;28;20088;-72
2023/12/28 11:39:38;;;;;;;1.13;0.60;;;11.60;1.00;;;;;;5052941;28;20056;-73
2023/12/28 11:42:06;;;;;;;0.88;0.60;;;12.00;1.00;;;;;;5049280;28;20412;-71
2023/12/28 11:44:39;;;;;;;2.72;1.65;;;11.80;1.00;;;;;;5052434;28;20222;-71
2023/12/28 11:47:24;;;;;;;1.55;0.65;;;12.10;1.00;;;;;;5056322;28;20045;-71
2023/12/28 11:49:54;;;;;;;0.52;0.52;;;11.90;1.00;;;;;;5049936;28;20052;-71
2023/12/28 11:52:32;;;;;;;10.30;0.47;;;11.40;1.00;;;;;;5055647;28;20040;-72
2023/12/28 11:55:02;;;;;;;2.75;0.57;;;11.80;1.00;;;;;;5058878;28;20128;-71
2023/12/28 11:57:28;;;;;;;0.50;0.40;;;12.10;1.00;;;;;;5059836;28;20720;-72
2023/12/28 11:59:55;;;;;;;0.85;0.65;;;11.70;1.00;;;;;;5055759;28;20049;-72
2023/12/28 12:02:22;;;;;;;0.98;0.35;;;11.40;1.00;;;;;;5057622;28;20041;-72
2023/12/28 12:04:48;;;;;;;0.57;0.57;;;11.60;1.00;;;;;;5051075;28;20061;-72
2023/12/28 12:07:13;;;;;;;2.08;1.40;;;11.60;1.00;;;;;;5072812;28;20049;-72
2023/12/28 12:09:39;;;;;;;1.20;0.88;;;11.70;1.00;;;;;;5052158;28;20045;-71
2023/12/28 12:12:06;;;;;;;0.20;0.20;;;11.60;1.00;;;;;;5052462;28;20053;-73
2023/12/28 12:14:33;;;;;;;17.17;0.73;;;11.60;1.00;;;;;;5051334;28;20045;-72
2023/12/28 12:17:00;;;;;;;2.63;2.35;;;11.80;1.00;;;;;;5050822;28;20447;-71
2023/12/28 12:19:26;;;;;;;7.18;1.67;;;11.80;1.00;;;;;;5051807;28;20053;-72
2023/12/28 12:21:52;;;;;;;;;;;11.80;1.00;;;;;;5051276;28;20523;-71
2023/12/28 12:24:18;;;;;;;0.85;0.85;;;12.00;1.00;;;;;;5064700;28;19963;-72
2023/12/28 12:26:45;;;;;;;;;;;11.90;1.00;;;;;;5064029;28;20476;-72
2023/12/28 12:29:11;;;;;;;0.20;0.20;;;11.90;1.00;;;;;;5051495;28;19924;-72
2023/12/28 12:31:41;;;;;;;0.20;0.20;;;11.90;1.00;;;;;;5060215;28;20052;-72
2023/12/28 12:34:15;;;;;;;0.40;0.40;;;11.80;1.00;;;;;;5057776;28;20049;-71
2023/12/28 12:36:41;;;;;;;8.77;1.23;;;11.60;1.00;;;;;;5071342;28;20365;-71
2023/12/28 12:39:08;;;;;;;7.32;0.98;;;11.60;1.00;;;;;;5067662;28;20101;-72
2023/12/28 12:41:34;;;;;;;1.77;1.67;;;11.90;1.00;;;;;;5061707;28;20079;-72
2023/12/28 12:44:00;;;;;;;3.28;1.42;;;12.00;1.00;;;;;;5070752;28;20068;-72
2023/12/28 12:46:26;;;;;;;2.42;2.25;;;11.70;1.00;;;;;;5070632;28;20527;-72
2023/12/28 12:48:59;;;;;;;13.75;1.92;;;12.10;1.00;;;;;;5069704;28;20045;-72
2023/12/28 12:51:26;;;;;;;0.25;0.25;;;11.90;1.00;;;;;;5070843;28;20153;-72